sensor_id;sensor_type;location;lat;lon;timestamp;pressure;altitude;pressure_sealevel;temperature
74750;BMP280;63269;53.330;-6.288;2023-12-20T00:01:16;101950.78;;;20.75
74750;BMP280;63269;53.330;-6.288;2023-12-20T00:03:41;101940.13;;;20.75
74750;BMP280;63269;53.330;-6.288;2023-12-20T00:06:07;101945.88;;;20.74
74750;BMP280;63269;53.330;-6.288;2023-12-20T00:08:33;101934.44;;;20.73
74750;BMP280;63269;53.330;-6.288;2023-12-20T00:10:58;101923.00;;;20.73
74750;BMP280;63269;53.330;-6.288;2023-12-20T00:13:23;101927.59;;;20.72
74750;BMP280;63269;53.330;-6.288;2023-12-20T00:15:49;101949.69;;;20.73
74750;BMP280;63269;53.330;-6.288;2023-12-20T00:18:14;101928.00;;;20.71
74750;BMP280;63269;53.330;-6.288;2023-12-20T00:20:40;101928.00;;;20.71
74750;BMP280;63269;53.330;-6.288;2023-12-20T00:23:05;101931.06;;;20.69
74750;BMP280;63269;53.330;-6.288;2023-12-20T00:25:31;101937.16;;;20.70
74750;BMP280;63269;53.330;-6.288;2023-12-20T00:27:56;101941.00;;;20.69
74750;BMP280;63269;53.330;-6.288;2023-12-20T00:30:21;101934.88;;;20.68
74750;BMP280;63269;53.330;-6.288;2023-12-20T00:32:47;101932.22;;;20.68
74750;BMP280;63269;53.330;-6.288;2023-12-20T00:35:13;101931.88;;;20.66
74750;BMP280;63269;53.330;-6.288;2023-12-20T00:37:39;101939.50;;;20.64
74750;BMP280;63269;53.330;-6.288;2023-12-20T00:40:05;101934.56;;;20.63
74750;BMP280;63269;53.330;-6.288;2023-12-20T00:42:31;101933.06;;;20.62
74750;BMP280;63269;53.330;-6.288;2023-12-20T00:44:57;101949.84;;;20.58
74750;BMP280;63269;53.330;-6.288;2023-12-20T00:47:22;101938.88;;;20.56
74750;BMP280;63269;53.330;-6.288;2023-12-20T00:49:48;101951.41;;;20.56
74750;BMP280;63269;53.330;-6.288;2023-12-20T00:52:13;101950.69;;;20.55
74750;BMP280;63269;53.330;-6.288;2023-12-20T00:54:39;101947.66;;;20.53
74750;BMP280;63269;53.330;-6.288;2023-12-20T00:57:04;101952.22;;;20.53
74750;BMP280;63269;53.330;-6.288;2023-12-20T00:59:30;101943.88;;;20.51
74750;BMP280;63269;53.330;-6.288;2023-12-20T01:01:56;101943.88;;;20.51
74750;BMP280;63269;53.330;-6.288;2023-12-20T01:04:23;101937.44;;;20.48
74750;BMP280;63269;53.330;-6.288;2023-12-20T01:06:48;101932.13;;;20.48
74750;BMP280;63269;53.330;-6.288;2023-12-20T01:09:13;101932.50;;;20.47
74750;BMP280;63269;53.330;-6.288;2023-12-20T01:11:39;101927.56;;;20.45
74750;BMP280;63269;53.330;-6.288;2023-12-20T01:14:05;101928.75;;;20.44
74750;BMP280;63269;53.330;-6.288;2023-12-20T01:16:30;101928.75;;;20.44
74750;BMP280;63269;53.330;-6.288;2023-12-20T01:18:55;101929.13;;;20.43
74750;BMP280;63269;53.330;-6.288;2023-12-20T01:21:21;101922.69;;;20.40
74750;BMP280;63269;53.330;-6.288;2023-12-20T01:23:46;101933.34;;;20.40
74750;BMP280;63269;53.330;-6.288;2023-12-20T01:26:12;101933.34;;;20.40
74750;BMP280;63269;53.330;-6.288;2023-12-20T01:28:38;101917.75;;;20.38
74750;BMP280;63269;53.330;-6.288;2023-12-20T01:31:03;101928.06;;;20.36
74750;BMP280;63269;53.330;-6.288;2023-12-20T01:33:29;101925.41;;;20.36
74750;BMP280;63269;53.330;-6.288;2023-12-20T01:35:54;101923.47;;;20.37
74750;BMP280;63269;53.330;-6.288;2023-12-20T01:38:20;101918.56;;;20.35
74750;BMP280;63269;53.330;-6.288;2023-12-20T01:40:45;101941.81;;;20.35
74750;BMP280;63269;53.330;-6.288;2023-12-20T01:43:11;101941.81;;;20.35
74750;BMP280;63269;53.330;-6.288;2023-12-20T01:45:38;101930.75;;;20.33
74750;BMP280;63269;53.330;-6.288;2023-12-20T01:48:05;101930.75;;;20.33
74750;BMP280;63269;53.330;-6.288;2023-12-20T01:50:31;101930.44;;;20.31
74750;BMP280;63269;53.330;-6.288;2023-12-20T01:52:59;101921.66;;;20.30
74750;BMP280;63269;53.330;-6.288;2023-12-20T01:55:27;101921.66;;;20.30
74750;BMP280;63269;53.330;-6.288;2023-12-20T01:57:55;101927.38;;;20.29
74750;BMP280;63269;53.330;-6.288;2023-12-20T02:00:21;101927.38;;;20.29
74750;BMP280;63269;53.330;-6.288;2023-12-20T02:02:50;101918.66;;;20.28
74750;BMP280;63269;53.330;-6.288;2023-12-20T02:05:16;101919.81;;;20.27
74750;BMP280;63269;53.330;-6.288;2023-12-20T02:07:42;101918.28;;;20.26
74750;BMP280;63269;53.330;-6.288;2023-12-20T02:10:08;101918.28;;;20.26
74750;BMP280;63269;53.330;-6.288;2023-12-20T02:12:33;101914.13;;;20.25
74750;BMP280;63269;53.330;-6.288;2023-12-20T02:14:59;101914.13;;;20.25
74750;BMP280;63269;53.330;-6.288;2023-12-20T02:17:25;101910.69;;;20.25
74750;BMP280;63269;53.330;-6.288;2023-12-20T02:19:51;101903.84;;;20.24
74750;BMP280;63269;53.330;-6.288;2023-12-20T02:22:16;101903.84;;;20.24
74750;BMP280;63269;53.330;-6.288;2023-12-20T02:24:42;101897.75;;;20.23
74750;BMP280;63269;53.330;-6.288;2023-12-20T02:27:07;101897.75;;;20.23
74750;BMP280;63269;53.330;-6.288;2023-12-20T02:29:34;101897.41;;;20.21
74750;BMP280;63269;53.330;-6.288;2023-12-20T02:31:59;101897.41;;;20.21
74750;BMP280;63269;53.330;-6.288;2023-12-20T02:34:25;101912.63;;;20.21
74750;BMP280;63269;53.330;-6.288;2023-12-20T02:36:50;101912.63;;;20.21
74750;BMP280;63269;53.330;-6.288;2023-12-20T02:39:16;101919.13;;;20.20
74750;BMP280;63269;53.330;-6.288;2023-12-20T02:41:42;101916.88;;;20.18
74750;BMP280;63269;53.330;-6.288;2023-12-20T02:44:07;101914.97;;;20.18
74750;BMP280;63269;53.330;-6.288;2023-12-20T02:46:32;101907.69;;;20.19
74750;BMP280;63269;53.330;-6.288;2023-12-20T02:48:58;101907.69;;;20.19
74750;BMP280;63269;53.330;-6.288;2023-12-20T02:51:23;101918.78;;;20.17
74750;BMP280;63269;53.330;-6.288;2023-12-20T02:53:49;101922.22;;;20.18
74750;BMP280;63269;53.330;-6.288;2023-12-20T02:56:14;101922.22;;;20.18
74750;BMP280;63269;53.330;-6.288;2023-12-20T02:58:40;101918.78;;;20.17
74750;BMP280;63269;53.330;-6.288;2023-12-20T03:01:05;101927.16;;;20.16
74750;BMP280;63269;53.330;-6.288;2023-12-20T03:03:31;101927.16;;;20.16
74750;BMP280;63269;53.330;-6.288;2023-12-20T03:05:57;101925.63;;;20.15
74750;BMP280;63269;53.330;-6.288;2023-12-20T03:08:22;101913.84;;;20.16
74750;BMP280;63269;53.330;-6.288;2023-12-20T03:10:48;101913.84;;;20.16
74750;BMP280;63269;53.330;-6.288;2023-12-20T03:13:13;101916.88;;;20.14
74750;BMP280;63269;53.330;-6.288;2023-12-20T03:15:39;101924.88;;;20.14
74750;BMP280;63269;53.330;-6.288;2023-12-20T03:18:05;101906.97;;;20.15
74750;BMP280;63269;53.330;-6.288;2023-12-20T03:20:30;101906.97;;;20.15
74750;BMP280;63269;53.330;-6.288;2023-12-20T03:23:02;101904.72;;;20.13
74750;BMP280;63269;53.330;-6.288;2023-12-20T03:25:27;101910.84;;;20.14
74750;BMP280;63269;53.330;-6.288;2023-12-20T03:27:53;101900.19;;;20.14
74750;BMP280;63269;53.330;-6.288;2023-12-20T03:30:19;101900.19;;;20.14
74750;BMP280;63269;53.330;-6.288;2023-12-20T03:32:45;101900.56;;;20.12
74750;BMP280;63269;53.330;-6.288;2023-12-20T03:35:10;101884.19;;;20.14
74750;BMP280;63269;53.330;-6.288;2023-12-20T03:37:36;101892.59;;;20.12
74750;BMP280;63269;53.330;-6.288;2023-12-20T03:40:02;101886.47;;;20.12
74750;BMP280;63269;53.330;-6.288;2023-12-20T03:42:28;101900.56;;;20.12
74750;BMP280;63269;53.330;-6.288;2023-12-20T03:44:53;101891.41;;;20.13
74750;BMP280;63269;53.330;-6.288;2023-12-20T03:47:19;101876.59;;;20.12
74750;BMP280;63269;53.330;-6.288;2023-12-20T03:49:44;101878.50;;;20.12
74750;BMP280;63269;53.330;-6.288;2023-12-20T03:52:09;101878.50;;;20.12
74750;BMP280;63269;53.330;-6.288;2023-12-20T03:54:35;101891.81;;;20.12
74750;BMP280;63269;53.330;-6.288;2023-12-20T03:57:01;101891.81;;;20.12
74750;BMP280;63269;53.330;-6.288;2023-12-20T03:59:26;101885.38;;;20.09
74750;BMP280;63269;53.330;-6.288;2023-12-20T04:01:51;101883.06;;;20.11
74750;BMP280;63269;53.330;-6.288;2023-12-20T04:04:17;101883.06;;;20.11
74750;BMP280;63269;53.330;-6.288;2023-12-20T04:06:42;101884.22;;;20.10
74750;BMP280;63269;53.330;-6.288;2023-12-20T04:09:08;101884.22;;;20.10
74750;BMP280;63269;53.330;-6.288;2023-12-20T04:11:37;101882.72;;;20.09
74750;BMP280;63269;53.330;-6.288;2023-12-20T04:14:02;101888.78;;;20.10
74750;BMP280;63269;53.330;-6.288;2023-12-20T04:16:27;101904.03;;;20.09
74750;BMP280;63269;53.330;-6.288;2023-12-20T04:18:53;101922.66;;;20.09
74750;BMP280;63269;53.330;-6.288;2023-12-20T04:21:18;101922.66;;;20.09
74750;BMP280;63269;53.330;-6.288;2023-12-20T04:23:44;101921.56;;;20.07
74750;BMP280;63269;53.330;-6.288;2023-12-20T04:26:10;101932.22;;;20.07
74750;BMP280;63269;53.330;-6.288;2023-12-20T04:28:35;101934.88;;;20.07
74750;BMP280;63269;53.330;-6.288;2023-12-20T04:31:01;101930.31;;;20.07
74750;BMP280;63269;53.330;-6.288;2023-12-20T04:33:26;101921.19;;;20.08
74750;BMP280;63269;53.330;-6.288;2023-12-20T04:35:51;101921.19;;;20.08
74750;BMP280;63269;53.330;-6.288;2023-12-20T04:38:17;101916.22;;;20.07
74750;BMP280;63269;53.330;-6.288;2023-12-20T04:40:42;101906.72;;;20.06
74750;BMP280;63269;53.330;-6.288;2023-12-20T04:43:08;101879.38;;;20.05
74750;BMP280;63269;53.330;-6.288;2023-12-20T04:45:34;101881.59;;;20.07
74750;BMP280;63269;53.330;-6.288;2023-12-20T04:48:00;101881.59;;;20.07
74750;BMP280;63269;53.330;-6.288;2023-12-20T04:50:26;101886.56;;;20.05
74750;BMP280;63269;53.330;-6.288;2023-12-20T04:52:51;101901.81;;;20.04
74750;BMP280;63269;53.330;-6.288;2023-12-20T04:55:17;101886.56;;;20.05
74750;BMP280;63269;53.330;-6.288;2023-12-20T04:57:42;101883.91;;;20.05
74750;BMP280;63269;53.330;-6.288;2023-12-20T05:00:08;101900.66;;;20.05
74750;BMP280;63269;53.330;-6.288;2023-12-20T05:02:35;101900.66;;;20.05
74750;BMP280;63269;53.330;-6.288;2023-12-20T05:05:00;101908.66;;;20.05
74750;BMP280;63269;53.330;-6.288;2023-12-20T05:07:26;101897.63;;;20.03
74750;BMP280;63269;53.330;-6.288;2023-12-20T05:09:51;101897.63;;;20.03
74750;BMP280;63269;53.330;-6.288;2023-12-20T05:12:17;101910.94;;;20.03
74750;BMP280;63269;53.330;-6.288;2023-12-20T05:14:42;101910.94;;;20.03
74750;BMP280;63269;53.330;-6.288;2023-12-20T05:17:07;101924.25;;;20.03
74750;BMP280;63269;53.330;-6.288;2023-12-20T05:19:33;101902.94;;;20.03
74750;BMP280;63269;53.330;-6.288;2023-12-20T05:22:01;101902.94;;;20.03
74750;BMP280;63269;53.330;-6.288;2023-12-20T05:24:27;101880.88;;;20.03
74750;BMP280;63269;53.330;-6.288;2023-12-20T05:26:52;101874.03;;;20.02
74750;BMP280;63269;53.330;-6.288;2023-12-20T05:29:18;101861.88;;;20.01
74750;BMP280;63269;53.330;-6.288;2023-12-20T05:31:43;101865.31;;;20.01
74750;BMP280;63269;53.330;-6.288;2023-12-20T05:34:08;101865.31;;;20.01
74750;BMP280;63269;53.330;-6.288;2023-12-20T05:36:34;101881.28;;;20.01
74750;BMP280;63269;53.330;-6.288;2023-12-20T05:39:00;101865.72;;;20.00
74750;BMP280;63269;53.330;-6.288;2023-12-20T05:41:25;101876.38;;;20.00
74750;BMP280;63269;53.330;-6.288;2023-12-20T05:43:50;101874.84;;;19.98
74750;BMP280;63269;53.330;-6.288;2023-12-20T05:46:16;101864.94;;;19.99
74750;BMP280;63269;53.330;-6.288;2023-12-20T05:48:41;101864.94;;;19.99
74750;BMP280;63269;53.330;-6.288;2023-12-20T05:51:07;101874.47;;;20.00
74750;BMP280;63269;53.330;-6.288;2023-12-20T05:53:33;101877.88;;;20.01
74750;BMP280;63269;53.330;-6.288;2023-12-20T05:55:58;101877.88;;;20.01
74750;BMP280;63269;53.330;-6.288;2023-12-20T05:58:24;101848.22;;;19.98
74750;BMP280;63269;53.330;-6.288;2023-12-20T06:00:50;101848.22;;;19.98
74750;BMP280;63269;53.330;-6.288;2023-12-20T06:03:15;101841.38;;;19.97
74750;BMP280;63269;53.330;-6.288;2023-12-20T06:05:41;101824.63;;;19.97
74750;BMP280;63269;53.330;-6.288;2023-12-20T06:08:06;101811.66;;;19.99
74750;BMP280;63269;53.330;-6.288;2023-12-20T06:10:32;101811.66;;;19.99
74750;BMP280;63269;53.330;-6.288;2023-12-20T06:12:57;101815.78;;;20.04
74750;BMP280;63269;53.330;-6.288;2023-12-20T06:15:24;101815.78;;;20.04
74750;BMP280;63269;53.330;-6.288;2023-12-20T06:17:49;101817.59;;;20.14
74750;BMP280;63269;53.330;-6.288;2023-12-20T06:20:15;101817.59;;;20.14
74750;BMP280;63269;53.330;-6.288;2023-12-20T06:22:40;101813.31;;;20.20
74750;BMP280;63269;53.330;-6.288;2023-12-20T06:25:06;101819.34;;;20.24
74750;BMP280;63269;53.330;-6.288;2023-12-20T06:27:32;101824.63;;;20.28
74750;BMP280;63269;53.330;-6.288;2023-12-20T06:29:57;101815.84;;;20.31
74750;BMP280;63269;53.330;-6.288;2023-12-20T06:32:23;101807.78;;;20.34
74750;BMP280;63269;53.330;-6.288;2023-12-20T06:34:49;101816.88;;;20.37
74750;BMP280;63269;53.330;-6.288;2023-12-20T06:37:15;101818.00;;;20.40
74750;BMP280;63269;53.330;-6.288;2023-12-20T06:39:40;101819.50;;;20.41
74750;BMP280;63269;53.330;-6.288;2023-12-20T06:42:06;101821.38;;;20.44
74750;BMP280;63269;53.330;-6.288;2023-12-20T06:44:31;101816.75;;;20.48
74750;BMP280;63269;53.330;-6.288;2023-12-20T06:46:57;101824.31;;;20.49
74750;BMP280;63269;53.330;-6.288;2023-12-20T06:49:23;101828.13;;;20.52
74750;BMP280;63269;53.330;-6.288;2023-12-20T06:51:48;101825.03;;;20.53
74750;BMP280;63269;53.330;-6.288;2023-12-20T06:54:14;101840.97;;;20.57
74750;BMP280;63269;53.330;-6.288;2023-12-20T06:56:39;101853.50;;;20.60
74750;BMP280;63269;53.330;-6.288;2023-12-20T06:59:06;101848.88;;;20.64
74750;BMP280;63269;53.330;-6.288;2023-12-20T07:01:31;101849.97;;;20.67
74750;BMP280;63269;53.330;-6.288;2023-12-20T07:03:57;101870.06;;;20.71
74750;BMP280;63269;53.330;-6.288;2023-12-20T07:06:22;101840.69;;;20.75
74750;BMP280;63269;53.330;-6.288;2023-12-20T07:08:48;101821.63;;;20.76
74750;BMP280;63269;53.330;-6.288;2023-12-20T07:11:13;101820.81;;;20.79
74750;BMP280;63269;53.330;-6.288;2023-12-20T07:13:39;101840.94;;;20.84
74750;BMP280;63269;53.330;-6.288;2023-12-20T07:16:04;101843.97;;;20.86
74750;BMP280;63269;53.330;-6.288;2023-12-20T07:18:30;101829.81;;;20.89
74750;BMP280;63269;53.330;-6.288;2023-12-20T07:20:55;101843.84;;;20.93
74750;BMP280;63269;53.330;-6.288;2023-12-20T07:23:21;101846.50;;;20.93
74750;BMP280;63269;53.330;-6.288;2023-12-20T07:25:47;101850.28;;;20.96
74750;BMP280;63269;53.330;-6.288;2023-12-20T07:28:12;101834.63;;;20.98
74750;BMP280;63269;53.330;-6.288;2023-12-20T07:30:38;101835.72;;;21.00
74750;BMP280;63269;53.330;-6.288;2023-12-20T07:33:03;101826.56;;;21.02
74750;BMP280;63269;53.330;-6.288;2023-12-20T07:35:29;101830.34;;;21.04
74750;BMP280;63269;53.330;-6.288;2023-12-20T07:37:54;101823.41;;;21.07
74750;BMP280;63269;53.330;-6.288;2023-12-20T07:40:20;101819.19;;;21.09
74750;BMP280;63269;53.330;-6.288;2023-12-20T07:42:45;101810.78;;;21.11
74750;BMP280;63269;53.330;-6.288;2023-12-20T07:45:11;101815.72;;;21.12
74750;BMP280;63269;53.330;-6.288;2023-12-20T07:47:37;101799.28;;;21.14
74750;BMP280;63269;53.330;-6.288;2023-12-20T07:50:02;101790.88;;;21.15
74750;BMP280;63269;53.330;-6.288;2023-12-20T07:52:29;101781.28;;;21.18
74750;BMP280;63269;53.330;-6.288;2023-12-20T07:54:55;101790.81;;;21.19
74750;BMP280;63269;53.330;-6.288;2023-12-20T07:57:20;101774.41;;;21.20
74750;BMP280;63269;53.330;-6.288;2023-12-20T07:59:46;101765.97;;;21.22
74750;BMP280;63269;53.330;-6.288;2023-12-20T08:02:11;101762.16;;;21.23
74750;BMP280;63269;53.330;-6.288;2023-12-20T08:04:37;101759.06;;;21.25
74750;BMP280;63269;53.330;-6.288;2023-12-20T08:07:03;101754.06;;;21.27
74750;BMP280;63269;53.330;-6.288;2023-12-20T08:09:29;101752.91;;;21.28
74750;BMP280;63269;53.330;-6.288;2023-12-20T08:11:55;101755.91;;;21.30
74750;BMP280;63269;53.330;-6.288;2023-12-20T08:14:20;101773.41;;;21.31
74750;BMP280;63269;53.330;-6.288;2023-12-20T08:16:46;101765.00;;;21.32
74750;BMP280;63269;53.330;-6.288;2023-12-20T08:19:11;101760.00;;;21.34
74750;BMP280;63269;53.330;-6.288;2023-12-20T08:21:37;101756.19;;;21.35
74750;BMP280;63269;53.330;-6.288;2023-12-20T08:24:03;101756.19;;;21.35
74750;BMP280;63269;53.330;-6.288;2023-12-20T08:26:28;101762.97;;;21.40
74750;BMP280;63269;53.330;-6.288;2023-12-20T08:28:53;101762.97;;;21.40
74750;BMP280;63269;53.330;-6.288;2023-12-20T08:31:19;101744.28;;;21.40
74750;BMP280;63269;53.330;-6.288;2023-12-20T08:33:45;101754.56;;;21.42
74750;BMP280;63269;53.330;-6.288;2023-12-20T08:36:11;101755.66;;;21.44
74750;BMP280;63269;53.330;-6.288;2023-12-20T08:38:37;101747.94;;;21.46
74750;BMP280;63269;53.330;-6.288;2023-12-20T08:41:03;101752.47;;;21.49
74750;BMP280;63269;53.330;-6.288;2023-12-20T08:43:36;101752.47;;;21.49
74750;BMP280;63269;53.330;-6.288;2023-12-20T08:46:02;101771.94;;;21.50
74750;BMP280;63269;53.330;-6.288;2023-12-20T08:48:28;101756.31;;;21.48
74750;BMP280;63269;53.330;-6.288;2023-12-20T08:50:54;101756.72;;;21.47
74750;BMP280;63269;53.330;-6.288;2023-12-20T08:53:19;101763.97;;;21.46
74750;BMP280;63269;53.330;-6.288;2023-12-20T08:55:45;101757.13;;;21.45
74750;BMP280;63269;53.330;-6.288;2023-12-20T08:58:11;101760.22;;;21.44
74750;BMP280;63269;53.330;-6.288;2023-12-20T09:00:36;101763.28;;;21.42
74750;BMP280;63269;53.330;-6.288;2023-12-20T09:03:02;101763.28;;;21.42
74750;BMP280;63269;53.330;-6.288;2023-12-20T09:05:28;101762.19;;;21.39
74750;BMP280;63269;53.330;-6.288;2023-12-20T09:07:53;101772.22;;;21.35
74750;BMP280;63269;53.330;-6.288;2023-12-20T09:10:19;101772.22;;;21.35
74750;BMP280;63269;53.330;-6.288;2023-12-20T09:12:51;101750.56;;;21.30
74750;BMP280;63269;53.330;-6.288;2023-12-20T09:15:17;101747.56;;;21.28
74750;BMP280;63269;53.330;-6.288;2023-12-20T09:17:42;101725.53;;;21.24
74750;BMP280;63269;53.330;-6.288;2023-12-20T09:20:09;101716.03;;;21.23
74750;BMP280;63269;53.330;-6.288;2023-12-20T09:22:35;101716.03;;;21.23
74750;BMP280;63269;53.330;-6.288;2023-12-20T09:25:00;101709.94;;;21.22
74750;BMP280;63269;53.330;-6.288;2023-12-20T09:27:27;101686.00;;;21.18
74750;BMP280;63269;53.330;-6.288;2023-12-20T09:29:52;101673.81;;;21.17
74750;BMP280;63269;53.330;-6.288;2023-12-20T09:32:18;101692.13;;;21.15
74750;BMP280;63269;53.330;-6.288;2023-12-20T09:34:45;101689.47;;;21.15
74750;BMP280;63269;53.330;-6.288;2023-12-20T09:37:11;101686.81;;;21.15
74750;BMP280;63269;53.330;-6.288;2023-12-20T09:39:36;101654.88;;;21.12
74750;BMP280;63269;53.330;-6.288;2023-12-20T09:42:06;101654.88;;;21.12
74750;BMP280;63269;53.330;-6.288;2023-12-20T09:44:32;101668.63;;;21.10
74750;BMP280;63269;53.330;-6.288;2023-12-20T09:47:02;101646.94;;;21.08
74750;BMP280;63269;53.330;-6.288;2023-12-20T09:49:28;101646.94;;;21.08
74750;BMP280;63269;53.330;-6.288;2023-12-20T09:51:54;101647.75;;;21.05
74750;BMP280;63269;53.330;-6.288;2023-12-20T09:54:21;101631.00;;;21.05
74750;BMP280;63269;53.330;-6.288;2023-12-20T09:56:47;101620.75;;;21.03
74750;BMP280;63269;53.330;-6.288;2023-12-20T09:59:13;101620.75;;;21.03
74750;BMP280;63269;53.330;-6.288;2023-12-20T10:01:42;101632.22;;;21.00
74750;BMP280;63269;53.330;-6.288;2023-12-20T10:04:09;101627.31;;;20.98
74750;BMP280;63269;53.330;-6.288;2023-12-20T10:06:41;101619.31;;;20.98
74750;BMP280;63269;53.330;-6.288;2023-12-20T10:09:08;101619.31;;;20.98
74750;BMP280;63269;53.330;-6.288;2023-12-20T10:11:35;101633.88;;;20.94
74750;BMP280;63269;53.330;-6.288;2023-12-20T10:14:03;101582.84;;;20.92
74750;BMP280;63269;53.330;-6.288;2023-12-20T10:16:29;101582.84;;;20.92
74750;BMP280;63269;53.330;-6.288;2023-12-20T10:18:55;101577.94;;;20.90
74750;BMP280;63269;53.330;-6.288;2023-12-20T10:21:22;101577.94;;;20.90
74750;BMP280;63269;53.330;-6.288;2023-12-20T10:23:48;101597.03;;;20.89
74750;BMP280;63269;53.330;-6.288;2023-12-20T10:26:23;101603.16;;;20.86
74750;BMP280;63269;53.330;-6.288;2023-12-20T10:29:15;101608.50;;;20.86
74750;BMP280;63269;53.330;-6.288;2023-12-20T10:31:41;101611.56;;;20.84
74750;BMP280;63269;53.330;-6.288;2023-12-20T10:34:08;101629.19;;;20.82
74750;BMP280;63269;53.330;-6.288;2023-12-20T10:36:33;101603.66;;;20.81
74750;BMP280;63269;53.330;-6.288;2023-12-20T10:38:59;101603.66;;;20.81
74750;BMP280;63269;53.330;-6.288;2023-12-20T10:41:30;101618.13;;;20.79
74750;BMP280;63269;53.330;-6.288;2023-12-20T10:44:00;101622.72;;;20.79
74750;BMP280;63269;53.330;-6.288;2023-12-20T10:46:27;101636.91;;;20.76
74750;BMP280;63269;53.330;-6.288;2023-12-20T10:48:57;101637.28;;;20.74
74750;BMP280;63269;53.330;-6.288;2023-12-20T10:51:23;101637.28;;;20.74
74750;BMP280;63269;53.330;-6.288;2023-12-20T10:53:52;101619.03;;;20.73
74750;BMP280;63269;53.330;-6.288;2023-12-20T10:56:18;101633.53;;;20.72
74750;BMP280;63269;53.330;-6.288;2023-12-20T10:58:45;101633.53;;;20.72
74750;BMP280;63269;53.330;-6.288;2023-12-20T11:01:12;101640.44;;;20.69
74750;BMP280;63269;53.330;-6.288;2023-12-20T11:03:43;101634.38;;;20.69
74750;BMP280;63269;53.330;-6.288;2023-12-20T11:06:46;101642.38;;;20.69
74750;BMP280;63269;53.330;-6.288;2023-12-20T11:09:14;101637.41;;;20.67
74750;BMP280;63269;53.330;-6.288;2023-12-20T11:12:09;101637.41;;;20.67
74750;BMP280;63269;53.330;-6.288;2023-12-20T11:14:48;101634.44;;;20.65
74750;BMP280;63269;53.330;-6.288;2023-12-20T11:17:14;101637.91;;;20.62
74750;BMP280;63269;53.330;-6.288;2023-12-20T11:22:24;101621.91;;;20.62
74750;BMP280;63269;53.330;-6.288;2023-12-20T11:24:51;101622.31;;;20.61
74750;BMP280;63269;53.330;-6.288;2023-12-20T11:27:18;101616.22;;;20.60
74750;BMP280;63269;53.330;-6.288;2023-12-20T11:29:51;101610.16;;;20.59
74750;BMP280;63269;53.330;-6.288;2023-12-20T11:34:59;101589.22;;;20.58
74750;BMP280;63269;53.330;-6.288;2023-12-20T11:37:31;101589.22;;;20.58
74750;BMP280;63269;53.330;-6.288;2023-12-20T11:40:06;101598.78;;;20.55
74750;BMP280;63269;53.330;-6.288;2023-12-20T11:42:45;101598.78;;;20.55
74750;BMP280;63269;53.330;-6.288;2023-12-20T11:45:13;101559.97;;;20.54
74750;BMP280;63269;53.330;-6.288;2023-12-20T11:47:42;101559.97;;;20.54
74750;BMP280;63269;53.330;-6.288;2023-12-20T11:50:07;101547.06;;;20.53
74750;BMP280;63269;53.330;-6.288;2023-12-20T11:52:33;101562.31;;;20.52
74750;BMP280;63269;53.330;-6.288;2023-12-20T11:54:58;101562.31;;;20.52
74750;BMP280;63269;53.330;-6.288;2023-12-20T11:57:24;101568.03;;;20.51
74750;BMP280;63269;53.330;-6.288;2023-12-20T11:59:50;101559.28;;;20.50
74750;BMP280;63269;53.330;-6.288;2023-12-20T12:02:15;101560.44;;;20.49
74750;BMP280;63269;53.330;-6.288;2023-12-20T12:04:41;101560.44;;;20.49
74750;BMP280;63269;53.330;-6.288;2023-12-20T12:07:07;101559.69;;;20.49
74750;BMP280;63269;53.330;-6.288;2023-12-20T12:09:32;101552.88;;;20.48
74750;BMP280;63269;53.330;-6.288;2023-12-20T12:11:58;101556.69;;;20.47
74750;BMP280;63269;53.330;-6.288;2023-12-20T12:14:24;101548.69;;;20.47
74750;BMP280;63269;53.330;-6.288;2023-12-20T12:16:49;101533.44;;;20.47
74750;BMP280;63269;53.330;-6.288;2023-12-20T12:19:25;101548.69;;;20.47
74750;BMP280;63269;53.330;-6.288;2023-12-20T12:22:06;101548.69;;;20.47
74750;BMP280;63269;53.330;-6.288;2023-12-20T12:24:43;101543.78;;;20.45
74750;BMP280;63269;53.330;-6.288;2023-12-20T12:27:09;101538.09;;;20.43
74750;BMP280;63269;53.330;-6.288;2023-12-20T12:29:35;101537.34;;;20.43
74750;BMP280;63269;53.330;-6.288;2023-12-20T12:32:05;101528.63;;;20.42
74750;BMP280;63269;53.330;-6.288;2023-12-20T12:34:31;101544.59;;;20.42
74750;BMP280;63269;53.330;-6.288;2023-12-20T12:36:56;101537.41;;;20.39
74750;BMP280;63269;53.330;-6.288;2023-12-20T12:39:23;101545.41;;;20.39
74750;BMP280;63269;53.330;-6.288;2023-12-20T12:41:50;101529.06;;;20.37
74750;BMP280;63269;53.330;-6.288;2023-12-20T12:44:16;101493.69;;;20.36
74750;BMP280;63269;53.330;-6.288;2023-12-20T12:46:43;101490.63;;;20.38
74750;BMP280;63269;53.330;-6.288;2023-12-20T12:49:09;101490.63;;;20.38
74750;BMP280;63269;53.330;-6.288;2023-12-20T12:51:34;101473.53;;;20.35
74750;BMP280;63269;53.330;-6.288;2023-12-20T12:54:00;101462.13;;;20.35
74750;BMP280;63269;53.330;-6.288;2023-12-20T12:56:25;101458.28;;;20.36
74750;BMP280;63269;53.330;-6.288;2023-12-20T12:58:51;101458.28;;;20.36
74750;BMP280;63269;53.330;-6.288;2023-12-20T13:01:16;101445.38;;;20.34
74750;BMP280;63269;53.330;-6.288;2023-12-20T13:03:41;101448.03;;;20.34
74750;BMP280;63269;53.330;-6.288;2023-12-20T13:06:07;101423.72;;;20.32
74750;BMP280;63269;53.330;-6.288;2023-12-20T13:08:34;101403.59;;;20.31
74750;BMP280;63269;53.330;-6.288;2023-12-20T13:10:59;101403.59;;;20.31
74750;BMP280;63269;53.330;-6.288;2023-12-20T13:13:26;101391.41;;;20.30
74750;BMP280;63269;53.330;-6.288;2023-12-20T13:15:52;101396.75;;;20.30
74750;BMP280;63269;53.330;-6.288;2023-12-20T13:18:20;101398.25;;;20.31
74750;BMP280;63269;53.330;-6.288;2023-12-20T13:20:46;101398.66;;;20.30
74750;BMP280;63269;53.330;-6.288;2023-12-20T13:23:11;101398.66;;;20.30
74750;BMP280;63269;53.330;-6.288;2023-12-20T13:25:37;101364.44;;;20.28
74750;BMP280;63269;53.330;-6.288;2023-12-20T13:28:02;101377.75;;;20.28
74750;BMP280;63269;53.330;-6.288;2023-12-20T13:30:30;101381.16;;;20.29
74750;BMP280;63269;53.330;-6.288;2023-12-20T13:32:56;101381.16;;;20.29
74750;BMP280;63269;53.330;-6.288;2023-12-20T13:35:21;101377.41;;;20.26
74750;BMP280;63269;53.330;-6.288;2023-12-20T13:37:47;101368.69;;;20.26
74750;BMP280;63269;53.330;-6.288;2023-12-20T13:40:12;101361.84;;;20.25
74750;BMP280;63269;53.330;-6.288;2023-12-20T13:42:38;101359.94;;;20.25
74750;BMP280;63269;53.330;-6.288;2023-12-20T13:45:04;101345.44;;;20.26